createdAt,value
2022-10-11T05:15:10.130Z,15.48
2022-10-11T05:17:36.892Z,15.34
2022-10-11T05:20:04.019Z,15.20
2022-10-11T05:22:30.623Z,14.58
2022-10-11T05:24:57.188Z,14.91
2022-10-11T05:27:48.867Z,15.05
2022-10-11T05:30:15.548Z,15.26
2022-10-11T05:32:42.256Z,15.15
2022-10-11T05:35:09.203Z,15.30
2022-10-11T05:37:35.803Z,15.26
2022-10-11T05:50:24.567Z,15.27
2022-10-11T05:52:51.666Z,15.05
2022-10-11T05:55:18.271Z,15.29
2022-10-11T05:57:44.822Z,15.27
2022-10-11T06:00:11.829Z,15.40
2022-10-11T06:02:38.393Z,15.32
2022-10-11T06:05:05.200Z,15.51
2022-10-11T06:07:31.990Z,15.65
2022-10-11T06:09:58.646Z,15.77
2022-10-11T06:12:25.269Z,15.78
2022-10-11T06:14:51.845Z,15.84
2022-10-11T06:17:18.519Z,15.88
2022-10-11T06:19:45.203Z,15.88
2022-10-11T06:22:12.508Z,15.77
2022-10-11T06:24:39.252Z,15.74
2022-10-11T06:27:05.945Z,15.99
2022-10-11T06:29:32.603Z,16.02
2022-10-11T06:32:29.985Z,15.95
2022-10-11T06:34:56.642Z,15.95
2022-10-11T06:37:23.336Z,15.88
2022-10-11T06:39:50.425Z,15.97
2022-10-11T06:42:17.383Z,16.03
2022-10-11T06:44:43.966Z,16.03
2022-10-11T06:48:12.410Z,16.06
2022-10-11T06:50:59.889Z,16.20
2022-10-11T06:53:41.079Z,16.08
2022-10-11T06:56:13.065Z,16.30
2022-10-11T06:58:43.882Z,16.18
2022-10-11T07:01:13.041Z,16.39
2022-10-11T07:03:40.222Z,16.35
2022-10-11T07:06:20.586Z,16.29
2022-10-11T07:09:06.577Z,16.44
2022-10-11T07:11:34.067Z,16.47
2022-10-11T07:14:04.412Z,16.64
2022-10-11T07:16:31.186Z,16.64
2022-10-11T07:19:01.235Z,16.63
2022-10-11T07:21:32.614Z,16.66
2022-10-11T07:24:23.161Z,16.82
2022-10-11T07:26:59.896Z,17.02
2022-10-11T07:29:26.657Z,17.02
2022-10-11T07:31:53.337Z,16.72
2022-10-11T07:34:20.710Z,16.87
2022-10-11T07:36:47.305Z,17.11
2022-10-11T07:39:14.110Z,17.16
2022-10-11T07:41:45.694Z,17.26
2022-10-11T07:44:13.158Z,17.01
2022-10-11T07:46:39.690Z,17.47
2022-10-11T07:49:06.258Z,17.71
2022-10-11T07:51:33.387Z,17.11
2022-10-11T07:54:03.478Z,16.84
2022-10-11T07:56:46.971Z,16.89
2022-10-11T07:59:13.548Z,17.46
2022-10-11T08:01:40.230Z,16.89
2022-10-11T08:04:06.958Z,17.45
2022-10-11T08:06:33.704Z,17.67
2022-10-11T08:09:02.372Z,17.35
2022-10-11T08:12:15.872Z,17.15
2022-10-11T08:15:40.597Z,17.43
2022-10-11T08:18:07.396Z,17.71
2022-10-11T08:20:34.173Z,17.37
2022-10-11T08:23:00.806Z,17.21
2022-10-11T08:25:27.536Z,17.25
2022-10-11T08:27:54.212Z,17.27
2022-10-11T08:30:20.804Z,17.56
2022-10-11T08:32:47.336Z,17.99
2022-10-11T08:35:14.864Z,18.16
2022-10-11T08:37:41.462Z,18.37
2022-10-11T08:40:10.511Z,17.76
2022-10-11T08:42:47.017Z,18.09
2022-10-11T08:46:00.033Z,18.26
2022-10-11T08:48:48.667Z,17.87
2022-10-11T08:51:21.250Z,18.48
2022-10-11T08:54:07.170Z,18.48
2022-10-11T08:56:37.360Z,18.83
2022-10-11T08:59:12.903Z,18.66
2022-10-11T09:06:05.473Z,18.94
2022-10-11T09:09:02.366Z,19.09
2022-10-11T09:11:37.790Z,19.17
2022-10-11T09:14:22.721Z,18.67
2022-10-11T09:17:00.905Z,18.97
2022-10-11T09:19:45.202Z,19.11
2022-10-11T09:22:54.208Z,19.11
2022-10-11T09:25:33.326Z,19.00
2022-10-11T09:28:13.410Z,18.86
2022-10-11T09:30:46.941Z,19.48
2022-10-11T09:33:35.421Z,19.66
2022-10-11T09:36:52.263Z,19.67
2022-10-11T09:39:57.061Z,19.70
2022-10-11T09:42:23.750Z,19.41
2022-10-11T09:44:51.710Z,19.68
2022-10-11T09:47:27.235Z,19.81
2022-10-11T09:50:05.340Z,20.08
2022-10-11T09:52:32.567Z,19.50
2022-10-11T09:55:19.678Z,19.93
2022-10-11T09:57:55.091Z,20.23
2022-10-11T10:00:24.386Z,20.25
2022-10-11T10:02:54.381Z,20.61
2022-10-11T10:05:26.946Z,20.32
2022-10-11T10:22:05.516Z,20.72
2022-10-11T10:24:41.311Z,21.07
2022-10-11T10:27:36.078Z,20.62
2022-10-11T10:30:35.378Z,20.68
2022-10-11T10:33:09.166Z,20.76
2022-10-11T10:35:48.486Z,20.40
2022-10-11T10:38:28.886Z,20.61
2022-10-11T10:41:01.871Z,21.30
2022-10-11T10:43:33.481Z,21.20
2022-10-11T10:50:18.429Z,21.56
2022-10-11T10:53:12.666Z,21.17
2022-10-11T10:55:43.161Z,20.69
2022-10-11T10:58:27.817Z,21.10
2022-10-11T11:01:02.380Z,20.90
2022-10-11T11:04:06.948Z,21.29
2022-10-11T11:06:54.056Z,21.65
2022-10-11T11:09:52.136Z,21.58
2022-10-11T11:12:24.822Z,21.64
2022-10-11T11:14:54.340Z,21.63
2022-10-11T11:18:06.002Z,21.67
2022-10-11T11:24:35.278Z,21.59
2022-10-11T11:27:26.550Z,21.71
2022-10-11T11:30:03.048Z,21.76
2022-10-11T11:33:24.425Z,21.83
2022-10-11T11:35:55.803Z,21.86
2022-10-11T11:39:15.602Z,21.45
2022-10-11T11:42:07.476Z,21.74
2022-10-11T11:44:44.380Z,21.75
2022-10-11T11:47:42.023Z,21.71
2022-10-11T11:50:34.443Z,21.43
2022-10-11T12:00:14.126Z,21.24
2022-10-11T12:03:11.361Z,21.68
2022-10-11T12:05:38.032Z,22.04
2022-10-11T12:08:11.129Z,21.86
2022-10-11T12:10:53.674Z,21.45
2022-10-11T12:13:48.511Z,21.53
2022-10-11T12:37:24.422Z,22.21
2022-10-11T12:39:57.983Z,22.18
2022-10-11T12:42:36.551Z,21.82
2022-10-11T12:45:14.934Z,22.09
2022-10-11T12:48:04.173Z,22.04
2022-10-11T12:50:49.470Z,22.07
2022-10-11T12:53:33.602Z,22.19
2022-10-11T12:56:07.606Z,21.67
2022-10-11T12:58:43.928Z,21.98
2022-10-11T13:01:19.525Z,22.17
2022-10-11T13:07:44.013Z,22.17
2022-10-11T13:10:16.063Z,22.24
2022-10-11T13:12:49.545Z,22.14
2022-10-11T13:15:20.898Z,22.08
2022-10-11T13:17:48.829Z,22.13
2022-10-11T13:20:58.232Z,22.34
2022-10-11T13:23:24.868Z,22.42
2022-10-11T13:28:36.809Z,22.36
2022-10-11T14:34:32.175Z,21.77
2022-10-11T14:36:59.032Z,21.97
2022-10-11T14:39:28.006Z,21.97
2022-10-11T14:44:30.896Z,22.00
2022-10-11T14:46:57.515Z,21.86
2022-10-11T14:54:48.537Z,22.01
2022-10-11T14:57:15.186Z,22.01
2022-10-11T14:59:41.997Z,21.98
2022-10-11T15:02:11.211Z,21.98
2022-10-11T15:04:37.919Z,21.91
2022-10-11T15:07:05.833Z,21.86
2022-10-11T15:09:32.659Z,21.72
2022-10-11T15:11:59.590Z,21.66
2022-10-11T15:14:26.452Z,21.64
2022-10-11T15:16:53.622Z,21.69
2022-10-11T15:19:23.039Z,21.74
2022-10-11T15:24:21.432Z,21.57
2022-10-11T15:26:48.524Z,21.55
2022-10-11T15:29:17.763Z,21.33
2022-10-11T15:31:47.598Z,21.46
2022-10-11T15:37:05.163Z,21.54
2022-10-11T15:39:43.919Z,21.48
2022-10-11T15:50:50.631Z,21.38
2022-10-11T15:53:18.954Z,21.33
2022-10-11T15:56:17.778Z,21.33
2022-10-11T15:58:50.910Z,21.29
2022-10-11T16:01:23.207Z,21.22
2022-10-11T16:03:55.493Z,21.19
2022-10-11T16:06:22.553Z,21.16
2022-10-11T16:08:59.659Z,21.10
2022-10-11T16:11:26.803Z,21.06
2022-10-11T16:13:54.314Z,21.07
2022-10-11T16:22:03.426Z,20.81
2022-10-11T16:29:47.025Z,20.25
2022-10-11T16:32:13.668Z,20.17
2022-10-11T16:34:41.534Z,20.00
2022-10-11T16:37:08.509Z,19.83
2022-10-11T16:39:36.374Z,19.73
2022-10-11T16:42:03.308Z,19.66
2022-10-11T16:44:30.004Z,19.65
2022-10-11T16:46:56.778Z,19.61
2022-10-11T16:49:27.528Z,19.56
2022-10-11T16:51:57.026Z,19.41
2022-10-11T16:54:28.292Z,19.36
2022-10-11T16:56:56.593Z,19.25
2022-10-11T16:59:25.782Z,19.00
2022-10-11T17:09:46.056Z,18.25
2022-10-11T17:12:14.375Z,18.18
2022-10-11T17:14:41.456Z,18.30
2022-10-11T17:17:09.745Z,18.33
2022-10-11T17:19:42.620Z,18.45
2022-10-11T17:22:13.158Z,18.51
2022-10-11T17:24:40.041Z,18.38
2022-10-11T17:27:07.664Z,18.44
2022-10-11T17:29:34.665Z,18.40
2022-10-11T17:32:01.671Z,18.47
2022-10-11T17:34:33.857Z,18.30
2022-10-11T17:37:00.624Z,18.33
2022-10-11T17:39:27.251Z,18.51
2022-10-11T17:41:53.944Z,18.52
2022-10-11T17:54:56.836Z,18.57
2022-10-11T17:57:26.250Z,18.53
2022-10-11T17:59:53.002Z,18.39
2022-10-11T18:02:20.207Z,18.27
2022-10-11T18:04:54.402Z,18.28
2022-10-11T18:07:29.902Z,18.34
2022-10-11T19:18:18.199Z,17.03
2022-10-11T19:21:12.031Z,17.00
2022-10-11T19:23:43.597Z,17.20
2022-10-11T19:26:23.687Z,17.07
2022-10-11T19:29:05.665Z,16.84
2022-10-11T19:31:34.487Z,16.94
2022-10-11T19:34:06.995Z,16.80
2022-10-11T19:36:41.076Z,16.80
2022-10-11T19:41:58.627Z,17.00
2022-10-11T19:44:25.326Z,16.98
2022-10-11T19:46:55.770Z,16.92
2022-10-11T19:49:26.854Z,16.76
2022-10-11T19:51:55.368Z,16.65
2022-10-11T19:54:22.350Z,16.78
2022-10-11T19:56:49.156Z,16.65
2022-10-11T19:59:16.297Z,16.51
2022-10-11T20:01:52.747Z,16.47
2022-10-11T20:40:00.310Z,16.59
2022-10-11T20:42:29.923Z,16.86
2022-10-11T20:45:08.174Z,16.89
2022-10-11T21:16:17.170Z,16.36
2022-10-11T21:39:36.881Z,15.97
2022-10-11T21:42:03.752Z,16.00
2022-10-11T21:44:32.550Z,15.83
2022-10-11T21:51:25.734Z,15.76
2022-10-11T21:54:00.396Z,15.70
2022-10-11T21:56:28.620Z,15.70
2022-10-11T21:58:55.568Z,15.78
2022-10-11T22:01:22.312Z,15.71
2022-10-11T22:03:49.082Z,15.54
2022-10-11T22:06:16.037Z,15.55
2022-10-11T22:08:45.827Z,15.29
2022-10-11T23:04:55.976Z,15.26
2022-10-11T23:07:22.572Z,15.30
2022-10-11T23:14:13.549Z,15.53
2022-10-11T23:16:46.267Z,15.60
2022-10-11T23:19:17.383Z,15.40
2022-10-11T23:21:49.497Z,15.39
2022-10-11T23:24:16.294Z,15.40
2022-10-11T23:26:45.947Z,15.37
2022-10-11T23:29:51.285Z,15.39
2022-10-11T23:32:28.281Z,15.43
2022-10-11T23:35:04.065Z,15.37
2022-10-11T23:37:36.937Z,15.31
2022-10-11T23:40:05.450Z,15.20
